Portada
METAR-TAF:

METAR-TAF

Aeroports :

Najran, Aràbia Saudita

latitud: 17-37N, longitud: 044-25E, altitud: 1212 m

Observació

L'informe es va fer fa 57 minuts, a les 10:00 UTC
Vent 7 kt del Est
Temperatura 24°C
Humitat 34%
Pressió 1020 hPa
Visibilitat: 2700 m
Escasses núvols a una alçada de 3000 ft
Núvols disperses a una alçada de 8000 ft
Pols estès

METAR: OENG 261000Z 08007KT 2700 DU FEW030 SCT080 24/07 Q1020 NOSIG

Hora: 13:57 (10:57 UTC)

Pronòstic

L'informe es va fer fa 11 hores i 57 minuts, a les 23:00 UTC
Pronòstic vàlid del 26 a les 00 UTC al 27 a les 06 UTC
Vent 3 kt amb direcció variable
Visibilitat: 6000 m
Evolucionant progressivament
l' 26 a les 06 UTC al 26 a les 08 UTC
Vent 12 kt del Est

TAF: OENG 252300Z 2600/2706 VRB03KT 6000 NSC BECMG 2606/2608 08012KT

Observacions i pronòstics meteorològics de més de 4000 aeroports (METAR i TAF).

Les estacions disponibles són els punts grocs i vermells al mapa.

Posi el ratolí al punt desitjat per veure el nom de l'estació.

Feu clic per veure les observacions i els pronòstics meteorològics.

Per canviar el mapa: feu clic els botons verds amb una creu de color negre per apropar; al botó verd amb un guió per allunyar la imatge; o en les fletxes verdes per a mapes adjacents.


METAR-TAF: